Time;durP1;ratioP1;P1;durP2;ratioP2;P2;SDS_P1;SDS_P2;PMS_P1;PMS_P2;Temp;Humidity;BMP_temperature;BMP_pressure;BME280_temperature;BME280_humidity;BME280_pressure;Samples;Min_cycle;Max_cycle;Signal;HPM_P1;HPM_P2
2023/07/22 00:02:04;;;;;;;5.28;1.83;;;;;;;;;;5052225;28;20676;-48
2023/07/22 00:04:29;;;;;;;4.72;2.13;;;;;;;;;;5050097;28;20225;-48
2023/07/22 00:06:56;;;;;;;2.50;2.00;;;;;;;;;;5055154;28;20194;-48
2023/07/22 00:09:22;;;;;;;3.60;2.42;;;;;;;;;;5052246;28;20420;-48
2023/07/22 00:11:49;;;;;;;2.75;2.20;;;;;;;;;;5055100;28;20313;-48
2023/07/22 00:14:15;;;;;;;2.97;1.75;;;;;;;;;;5046703;28;20343;-48
2023/07/22 00:16:41;;;;;;;2.50;1.90;;;;;;;;;;5049210;28;20666;-48
2023/07/22 00:19:07;;;;;;;5.05;2.28;;;;;;;;;;5052978;28;20175;-48
2023/07/22 00:21:34;;;;;;;2.30;1.95;;;;;;;;;;5056425;28;20717;-48
2023/07/22 00:24:00;;;;;;;4.10;2.15;;;;;;;;;;5050530;28;20191;-48
2023/07/22 00:26:26;;;;;;;2.45;2.05;;;;;;;;;;5052638;28;20194;-48
2023/07/22 00:28:52;;;;;;;5.28;1.77;;;;;;;;;;5047501;28;20225;-48
2023/07/22 00:31:18;;;;;;;4.25;2.10;;;;;;;;;;5043457;28;20215;-48
2023/07/22 00:33:43;;;;;;;5.00;2.10;;;;;;;;;;5044413;28;20296;-48
2023/07/22 00:36:09;;;;;;;3.75;2.30;;;;;;;;;;5053364;28;20175;-48
2023/07/22 00:38:35;;;;;;;2.97;2.30;;;;;;;;;;5047415;28;20190;-48
2023/07/22 00:41:04;;;;;;;3.38;2.25;;;;;;;;;;5052605;28;20185;-48
2023/07/22 00:43:30;;;;;;;5.47;2.30;;;;;;;;;;5050181;28;20187;-48
2023/07/22 00:45:56;;;;;;;3.20;2.38;;;;;;;;;;5051511;28;20474;-48
2023/07/22 00:48:22;;;;;;;2.72;1.90;;;;;;;;;;5049045;28;20190;-48
2023/07/22 00:50:48;;;;;;;4.88;2.40;;;;;;;;;;5051542;28;20190;-48
2023/07/22 00:53:14;;;;;;;4.93;2.22;;;;;;;;;;5054660;28;20198;-48
2023/07/22 00:55:41;;;;;;;7.00;2.65;;;;;;;;;;5053811;28;20546;-48
2023/07/22 00:58:07;;;;;;;3.70;2.20;;;;;;;;;;5054175;28;20576;-48
2023/07/22 01:00:32;;;;;;;2.50;1.98;;;;;;;;;;5052898;28;20250;-48
2023/07/22 01:02:59;;;;;;;2.78;2.03;;;;;;;;;;5044202;28;20195;-48
2023/07/22 01:05:27;;;;;;;6.45;2.10;;;;;;;;;;5054312;28;20175;-48
2023/07/22 01:07:53;;;;;;;3.78;2.15;;;;;;;;;;5046308;28;20199;-48
2023/07/22 01:10:19;;;;;;;5.35;2.05;;;;;;;;;;5045130;28;20243;-48
2023/07/22 01:12:45;;;;;;;3.90;1.80;;;;;;;;;;5054180;28;20190;-48
2023/07/22 01:15:11;;;;;;;4.18;2.10;;;;;;;;;;5051772;28;20195;-48
2023/07/22 01:17:38;;;;;;;3.88;1.75;;;;;;;;;;5050707;28;20206;-48
2023/07/22 01:20:05;;;;;;;2.58;2.20;;;;;;;;;;5053487;28;20198;-48
2023/07/22 01:22:31;;;;;;;4.97;1.95;;;;;;;;;;5060671;28;20255;-48
2023/07/22 01:24:58;;;;;;;5.68;2.05;;;;;;;;;;5049972;28;20194;-48
2023/07/22 01:27:24;;;;;;;3.85;2.13;;;;;;;;;;5053917;28;20438;-48
2023/07/22 01:29:53;;;;;;;3.42;1.98;;;;;;;;;;5053214;28;20186;-48
2023/07/22 01:32:22;;;;;;;4.43;2.30;;;;;;;;;;5048375;28;20260;-48
2023/07/22 01:34:48;;;;;;;4.82;1.98;;;;;;;;;;5042659;28;20239;-48
2023/07/22 01:37:14;;;;;;;6.80;2.40;;;;;;;;;;5054053;28;20248;-48
2023/07/22 01:39:40;;;;;;;2.85;2.00;;;;;;;;;;5048307;28;20223;-48
2023/07/22 01:42:06;;;;;;;6.53;2.25;;;;;;;;;;5045521;28;20186;-48
2023/07/22 01:44:32;;;;;;;5.97;2.22;;;;;;;;;;5047559;28;20194;-48
2023/07/22 01:46:58;;;;;;;5.43;2.05;;;;;;;;;;5051553;28;20187;-48
2023/07/22 01:49:24;;;;;;;5.00;2.05;;;;;;;;;;5051140;28;20193;-49
2023/07/22 01:51:50;;;;;;;3.75;2.10;;;;;;;;;;5052198;28;20442;-49
2023/07/22 01:54:16;;;;;;;3.90;2.38;;;;;;;;;;5051577;28;20207;-48
2023/07/22 01:56:42;;;;;;;3.92;2.08;;;;;;;;;;5045908;28;20550;-48
2023/07/22 01:59:09;;;;;;;3.35;2.08;;;;;;;;;;5051624;28;20183;-48
2023/07/22 02:01:35;;;;;;;3.63;2.33;;;;;;;;;;5045811;28;20267;-48
2023/07/22 02:04:01;;;;;;;7.53;2.47;;;;;;;;;;5061847;28;20550;-48
2023/07/22 02:06:28;;;;;;;5.55;2.42;;;;;;;;;;5067956;28;20234;-48
2023/07/22 02:08:55;;;;;;;2.33;1.90;;;;;;;;;;5050943;28;20179;-48
2023/07/22 02:11:21;;;;;;;3.72;2.40;;;;;;;;;;5052286;28;20191;-48
2023/07/22 02:13:47;;;;;;;3.83;2.50;;;;;;;;;;5044753;28;20243;-48
2023/07/22 02:16:13;;;;;;;4.43;2.63;;;;;;;;;;5051745;28;20195;-48
2023/07/22 02:18:39;;;;;;;2.63;1.73;;;;;;;;;;5052722;28;20187;-48
2023/07/22 02:21:05;;;;;;;7.38;2.28;;;;;;;;;;5052338;28;20215;-48
2023/07/22 02:23:31;;;;;;;4.72;2.47;;;;;;;;;;5054458;28;20593;-49
2023/07/22 02:25:57;;;;;;;3.28;2.03;;;;;;;;;;5055737;28;20187;-48
2023/07/22 02:28:24;;;;;;;3.42;2.25;;;;;;;;;;5051055;28;20446;-48
2023/07/22 02:30:52;;;;;;;6.30;2.50;;;;;;;;;;5056013;28;20215;-49
2023/07/22 02:33:18;;;;;;;7.22;2.22;;;;;;;;;;5049409;28;20598;-48
2023/07/22 02:35:44;;;;;;;5.30;2.40;;;;;;;;;;5053548;28;20191;-48
2023/07/22 02:38:10;;;;;;;4.30;2.10;;;;;;;;;;5048434;28;22295;-48
2023/07/22 02:40:36;;;;;;;4.35;2.38;;;;;;;;;;5051244;28;20661;-48
2023/07/22 02:43:03;;;;;;;2.58;2.30;;;;;;;;;;5051216;28;20198;-48
2023/07/22 02:45:29;;;;;;;3.92;2.40;;;;;;;;;;5045792;28;20411;-48
2023/07/22 02:47:55;;;;;;;6.95;2.78;;;;;;;;;;5051886;28;20197;-48
2023/07/22 02:50:20;;;;;;;4.43;2.28;;;;;;;;;;5055365;28;20193;-48
2023/07/22 02:52:46;;;;;;;5.10;2.30;;;;;;;;;;5066703;28;20218;-48
2023/07/22 02:55:19;;;;;;;2.30;2.10;;;;;;;;;;5076260;28;20227;-48
2023/07/22 02:57:46;;;;;;;6.55;2.80;;;;;;;;;;5056858;28;20254;-48
2023/07/22 03:00:12;;;;;;;3.90;2.65;;;;;;;;;;5055852;28;20245;-48
2023/07/22 03:02:39;;;;;;;2.80;2.30;;;;;;;;;;5048314;28;20195;-49
2023/07/22 03:05:08;;;;;;;5.50;2.35;;;;;;;;;;5048919;28;20207;-49
2023/07/22 03:07:37;;;;;;;3.85;2.50;;;;;;;;;;5056268;28;20189;-48
2023/07/22 03:10:04;;;;;;;4.75;3.05;;;;;;;;;;5055835;28;20214;-48
2023/07/22 03:12:29;;;;;;;5.90;2.78;;;;;;;;;;5055149;28;20477;-49
2023/07/22 03:14:55;;;;;;;4.13;2.92;;;;;;;;;;5047755;28;20310;-48
2023/07/22 03:17:22;;;;;;;4.03;2.40;;;;;;;;;;5056033;28;20245;-48
2023/07/22 03:19:48;;;;;;;4.65;2.55;;;;;;;;;;5052073;28;20187;-48
2023/07/22 03:22:18;;;;;;;4.03;2.63;;;;;;;;;;5058083;28;20192;-48
2023/07/22 03:24:44;;;;;;;3.30;2.65;;;;;;;;;;5052528;28;20202;-48
2023/07/22 03:27:10;;;;;;;4.72;2.25;;;;;;;;;;5055539;28;20182;-48
2023/07/22 03:29:36;;;;;;;7.63;2.80;;;;;;;;;;5054822;28;20570;-47
2023/07/22 03:32:02;;;;;;;4.70;2.83;;;;;;;;;;5055404;28;20225;-48
2023/07/22 03:34:28;;;;;;;5.25;2.70;;;;;;;;;;5056589;28;20259;-49
2023/07/22 03:36:54;;;;;;;2.40;2.20;;;;;;;;;;5043797;28;20187;-48
2023/07/22 03:39:20;;;;;;;6.03;2.58;;;;;;;;;;5054306;28;20176;-48
2023/07/22 03:41:46;;;;;;;3.95;2.30;;;;;;;;;;5051986;28;20183;-48
2023/07/22 03:44:12;;;;;;;3.22;2.35;;;;;;;;;;5049898;28;20176;-48
2023/07/22 03:46:39;;;;;;;3.70;2.22;;;;;;;;;;5052303;28;20517;-48
2023/07/22 03:49:05;;;;;;;5.43;3.00;;;;;;;;;;5052285;28;20187;-47
2023/07/22 03:51:31;;;;;;;4.20;2.45;;;;;;;;;;5050927;28;20193;-48
2023/07/22 03:53:57;;;;;;;2.72;2.33;;;;;;;;;;5053591;28;20612;-48
2023/07/22 03:56:23;;;;;;;2.83;2.33;;;;;;;;;;5053011;28;20229;-48
2023/07/22 03:58:49;;;;;;;5.55;2.60;;;;;;;;;;5050250;28;20211;-48
2023/07/22 04:01:15;;;;;;;6.78;2.65;;;;;;;;;;5046378;28;20179;-48
2023/07/22 04:03:41;;;;;;;4.10;2.47;;;;;;;;;;5042657;28;20475;-48
2023/07/22 04:06:07;;;;;;;6.35;3.08;;;;;;;;;;5048210;28;20455;-48
2023/07/22 04:08:33;;;;;;;5.95;3.33;;;;;;;;;;5048845;28;20510;-48
2023/07/22 04:10:59;;;;;;;6.10;3.20;;;;;;;;;;5054880;28;20258;-48
2023/07/22 04:13:26;;;;;;;5.75;2.45;;;;;;;;;;5052880;28;20207;-48
2023/07/22 04:15:52;;;;;;;5.75;3.20;;;;;;;;;;5052613;28;20175;-48
2023/07/22 04:18:19;;;;;;;4.95;3.10;;;;;;;;;;5054268;28;20195;-48
2023/07/22 04:20:45;;;;;;;6.72;3.20;;;;;;;;;;5049822;28;20202;-48
2023/07/22 04:23:11;;;;;;;5.18;3.17;;;;;;;;;;5068504;28;20324;-48
2023/07/22 04:25:41;;;;;;;6.65;3.05;;;;;;;;;;5056232;28;20279;-48
2023/07/22 04:28:10;;;;;;;5.53;2.83;;;;;;;;;;5047451;28;20179;-48
2023/07/22 04:30:36;;;;;;;5.47;3.00;;;;;;;;;;5054286;28;20574;-48
2023/07/22 04:33:03;;;;;;;6.45;2.20;;;;;;;;;;5050864;28;20420;-48
2023/07/22 04:35:32;;;;;;;4.03;2.17;;;;;;;;;;5053271;28;20198;-49
2023/07/22 04:37:58;;;;;;;5.47;2.83;;;;;;;;;;5044560;28;20208;-49
2023/07/22 04:40:24;;;;;;;6.90;3.05;;;;;;;;;;5045532;28;20241;-48
2023/07/22 04:42:51;;;;;;;3.38;2.67;;;;;;;;;;5043944;28;20577;-48
2023/07/22 04:45:18;;;;;;;4.97;3.15;;;;;;;;;;5051090;28;20190;-48
2023/07/22 04:47:46;;;;;;;4.45;3.05;;;;;;;;;;5054486;28;20477;-48
2023/07/22 04:50:12;;;;;;;3.80;3.08;;;;;;;;;;5053929;28;20186;-48
2023/07/22 04:52:38;;;;;;;4.38;2.90;;;;;;;;;;5057115;28;20207;-48
2023/07/22 04:55:08;;;;;;;4.40;3.58;;;;;;;;;;5054052;28;20260;-48
2023/07/22 04:57:35;;;;;;;6.70;3.30;;;;;;;;;;5046705;28;20172;-49
2023/07/22 05:00:03;;;;;;;5.72;2.83;;;;;;;;;;5041683;28;20176;-48
2023/07/22 05:02:30;;;;;;;5.00;2.95;;;;;;;;;;5048373;28;20218;-48
2023/07/22 05:04:56;;;;;;;5.68;3.40;;;;;;;;;;5049375;28;20451;-48
2023/07/22 05:07:22;;;;;;;4.22;2.70;;;;;;;;;;5054287;28;20562;-48
2023/07/22 05:09:48;;;;;;;5.45;3.10;;;;;;;;;;5048347;28;20269;-48
2023/07/22 05:12:14;;;;;;;6.03;3.65;;;;;;;;;;5073195;28;20186;-48
2023/07/22 05:14:40;;;;;;;8.80;3.22;;;;;;;;;;5058698;28;20593;-48
2023/07/22 05:17:06;;;;;;;5.68;3.22;;;;;;;;;;5054215;28;20753;-48
2023/07/22 05:19:32;;;;;;;7.93;2.80;;;;;;;;;;5052653;28;20274;-48
2023/07/22 05:21:58;;;;;;;5.45;3.45;;;;;;;;;;5055514;28;20522;-48
2023/07/22 05:24:24;;;;;;;4.93;3.40;;;;;;;;;;5072020;28;20281;-48
2023/07/22 05:26:50;;;;;;;4.57;3.20;;;;;;;;;;5059302;28;20202;-49
2023/07/22 05:29:16;;;;;;;7.80;3.15;;;;;;;;;;5052690;28;20195;-48
2023/07/22 05:31:42;;;;;;;5.45;3.53;;;;;;;;;;5049440;28;20188;-48
2023/07/22 05:34:08;;;;;;;3.95;3.13;;;;;;;;;;5041600;28;20301;-48
2023/07/22 05:36:33;;;;;;;5.97;4.07;;;;;;;;;;5047216;28;20316;-48
2023/07/22 05:38:59;;;;;;;8.05;3.33;;;;;;;;;;5049768;28;20814;-48
2023/07/22 05:41:26;;;;;;;5.55;3.53;;;;;;;;;;5053995;28;20187;-49
2023/07/22 05:43:52;;;;;;;5.35;4.00;;;;;;;;;;5052242;28;20462;-49
2023/07/22 05:46:18;;;;;;;4.75;3.45;;;;;;;;;;5054065;28;20183;-49
2023/07/22 05:48:44;;;;;;;6.28;3.35;;;;;;;;;;5048279;28;20222;-49
2023/07/22 05:51:10;;;;;;;5.95;3.88;;;;;;;;;;5049963;28;20183;-49
2023/07/22 05:53:36;;;;;;;4.97;3.83;;;;;;;;;;5068050;28;20262;-49
2023/07/22 05:56:02;;;;;;;5.20;3.42;;;;;;;;;;5051013;28;20258;-49
2023/07/22 05:58:28;;;;;;;5.95;4.43;;;;;;;;;;5056875;28;20187;-49
2023/07/22 06:00:55;;;;;;;7.57;3.70;;;;;;;;;;5042971;28;20192;-49
2023/07/22 06:03:21;;;;;;;6.25;4.45;;;;;;;;;;5054245;28;20180;-46
2023/07/22 06:05:47;;;;;;;6.50;4.07;;;;;;;;;;5055623;28;20179;-49
2023/07/22 06:08:13;;;;;;;6.00;3.70;;;;;;;;;;5054246;28;20624;-50
2023/07/22 06:10:40;;;;;;;9.48;4.53;;;;;;;;;;5055099;28;20183;-52
2023/07/22 06:13:06;;;;;;;5.90;4.30;;;;;;;;;;5053408;28;20176;-50
2023/07/22 06:15:33;;;;;;;3.92;3.10;;;;;;;;;;5057061;28;20187;-50
2023/07/22 06:17:59;;;;;;;8.20;4.13;;;;;;;;;;5056486;28;20211;-50
2023/07/22 06:20:25;;;;;;;4.70;4.20;;;;;;;;;;5053965;28;20225;-50
2023/07/22 06:22:51;;;;;;;5.90;3.97;;;;;;;;;;5065858;28;20182;-49
2023/07/22 06:25:17;;;;;;;5.78;4.07;;;;;;;;;;5051568;28;20207;-47
2023/07/22 06:27:43;;;;;;;6.93;4.53;;;;;;;;;;5057021;28;20258;-49
2023/07/22 06:30:09;;;;;;;5.45;4.03;;;;;;;;;;5056442;28;20175;-48
2023/07/22 06:32:38;;;;;;;5.18;4.65;;;;;;;;;;5048645;28;20237;-49
2023/07/22 06:35:05;;;;;;;5.25;4.18;;;;;;;;;;5051296;28;20258;-49
2023/07/22 06:37:31;;;;;;;5.88;4.38;;;;;;;;;;5055789;28;20326;-49
2023/07/22 06:39:57;;;;;;;8.07;5.55;;;;;;;;;;5051139;28;20570;-49
2023/07/22 06:42:23;;;;;;;5.80;4.90;;;;;;;;;;5055623;28;20175;-49
2023/07/22 06:44:49;;;;;;;6.28;4.60;;;;;;;;;;5050763;28;20305;-49
2023/07/22 06:47:15;;;;;;;5.95;4.63;;;;;;;;;;5054090;28;20187;-51
2023/07/22 06:49:41;;;;;;;9.27;5.00;;;;;;;;;;5041010;28;20186;-48
2023/07/22 06:52:07;;;;;;;6.90;4.10;;;;;;;;;;5049167;28;20195;-49
2023/07/22 06:54:34;;;;;;;8.32;5.05;;;;;;;;;;5053874;28;20203;-49
2023/07/22 06:57:00;;;;;;;7.07;4.75;;;;;;;;;;5055067;28;20199;-49
2023/07/22 06:59:29;;;;;;;6.00;4.38;;;;;;;;;;5055321;28;20207;-49
2023/07/22 07:01:54;;;;;;;5.72;4.38;;;;;;;;;;5050178;28;20179;-49
2023/07/22 07:04:20;;;;;;;7.20;4.63;;;;;;;;;;5052777;28;20187;-49
2023/07/22 07:06:46;;;;;;;4.55;4.15;;;;;;;;;;5050056;28;20186;-49
2023/07/22 07:09:12;;;;;;;7.85;5.57;;;;;;;;;;5047095;28;20211;-49
2023/07/22 07:11:38;;;;;;;5.25;4.38;;;;;;;;;;5049606;28;20218;-49
2023/07/22 07:14:04;;;;;;;5.43;3.95;;;;;;;;;;5050031;28;20243;-49
2023/07/22 07:16:31;;;;;;;5.05;3.88;;;;;;;;;;5047963;28;20282;-49
2023/07/22 07:18:57;;;;;;;5.72;4.38;;;;;;;;;;5052006;28;20183;-49
2023/07/22 07:21:24;;;;;;;5.65;4.15;;;;;;;;;;5055592;28;20180;-50
2023/07/22 07:23:51;;;;;;;7.53;4.43;;;;;;;;;;5054329;28;20191;-49
2023/07/22 07:26:17;;;;;;;5.45;4.68;;;;;;;;;;5051514;28;20321;-49
2023/07/22 07:28:43;;;;;;;5.57;3.60;;;;;;;;;;5055182;28;20274;-48
2023/07/22 07:31:09;;;;;;;6.18;4.38;;;;;;;;;;5055281;28;20186;-49
2023/07/22 07:33:35;;;;;;;6.60;4.65;;;;;;;;;;5052817;28;20207;-49
2023/07/22 07:36:02;;;;;;;5.13;4.60;;;;;;;;;;5054474;28;20178;-48
2023/07/22 07:38:28;;;;;;;6.88;3.92;;;;;;;;;;5047838;28;20178;-48
2023/07/22 07:41:08;;;;;;;5.28;4.32;;;;;;;;;;5050596;28;20509;-48
2023/07/22 07:43:34;;;;;;;6.88;4.38;;;;;;;;;;5058835;28;20186;-48
2023/07/22 07:46:20;;;;;;;7.18;3.92;;;;;;;;;;5059778;28;20257;-48
2023/07/22 07:48:46;;;;;;;4.88;4.25;;;;;;;;;;5060204;28;20599;-48
2023/07/22 07:51:13;;;;;;;6.55;3.95;;;;;;;;;;5055062;28;20589;-48
2023/07/22 07:53:39;;;;;;;4.63;3.92;;;;;;;;;;5051231;28;20213;-48
2023/07/22 07:56:05;;;;;;;7.60;4.32;;;;;;;;;;5053232;28;20179;-48
2023/07/22 07:58:31;;;;;;;5.68;4.32;;;;;;;;;;5046663;28;20187;-48
2023/07/22 08:00:57;;;;;;;5.47;4.00;;;;;;;;;;5046767;28;20183;-48
2023/07/22 08:03:23;;;;;;;5.50;4.13;;;;;;;;;;5052050;28;20224;-48
2023/07/22 08:05:49;;;;;;;3.97;3.58;;;;;;;;;;5054675;28;20214;-48
2023/07/22 08:08:15;;;;;;;5.03;3.58;;;;;;;;;;5055073;28;20266;-48
2023/07/22 08:10:42;;;;;;;6.38;3.80;;;;;;;;;;5053367;28;20559;-48
2023/07/22 08:13:08;;;;;;;4.93;3.45;;;;;;;;;;5052068;28;20270;-48
2023/07/22 08:15:34;;;;;;;4.40;3.20;;;;;;;;;;5047243;28;20294;-48
2023/07/22 08:18:00;;;;;;;3.60;3.30;;;;;;;;;;5050041;28;20175;-48
2023/07/22 08:20:26;;;;;;;5.35;3.55;;;;;;;;;;5043372;28;20216;-48
2023/07/22 08:22:52;;;;;;;4.75;3.67;;;;;;;;;;5047145;28;20180;-49
2023/07/22 08:25:18;;;;;;;5.93;3.90;;;;;;;;;;5046553;28;20194;-49
2023/07/22 08:27:44;;;;;;;3.40;3.10;;;;;;;;;;5039769;28;20211;-49
2023/07/22 08:30:10;;;;;;;3.75;3.17;;;;;;;;;;5046873;28;20192;-49
2023/07/22 08:32:36;;;;;;;3.75;2.95;;;;;;;;;;5047294;28;20614;-48
2023/07/22 08:35:02;;;;;;;6.25;2.80;;;;;;;;;;5051422;28;20211;-48
2023/07/22 08:37:27;;;;;;;4.50;2.80;;;;;;;;;;5044961;28;20209;-48
2023/07/22 08:39:53;;;;;;;3.20;2.80;;;;;;;;;;5041626;28;20176;-48
2023/07/22 08:42:19;;;;;;;3.35;3.05;;;;;;;;;;5052780;28;20179;-48
2023/07/22 08:44:48;;;;;;;4.13;2.67;;;;;;;;;;5039117;28;20561;-48
2023/07/22 08:47:15;;;;;;;4.40;3.72;;;;;;;;;;5044859;28;20183;-48
2023/07/22 08:49:46;;;;;;;3.83;3.00;;;;;;;;;;5045670;28;20175;-48
2023/07/22 08:52:13;;;;;;;2.80;2.58;;;;;;;;;;5048795;28;20202;-48
2023/07/22 08:54:40;;;;;;;3.53;2.70;;;;;;;;;;5052000;28;20215;-49
2023/07/22 08:57:06;;;;;;;3.08;2.72;;;;;;;;;;5052392;28;20198;-48
2023/07/22 08:59:33;;;;;;;3.13;2.53;;;;;;;;;;5047697;28;20232;-49
2023/07/22 09:02:00;;;;;;;4.65;2.85;;;;;;;;;;5045230;28;20193;-48
2023/07/22 09:04:25;;;;;;;4.90;2.70;;;;;;;;;;5047929;28;20202;-48
2023/07/22 09:06:52;;;;;;;3.28;2.83;;;;;;;;;;5051607;28;20187;-48
2023/07/22 09:09:18;;;;;;;4.63;2.92;;;;;;;;;;5046333;28;20197;-48
2023/07/22 09:11:46;;;;;;;3.00;2.70;;;;;;;;;;5054593;28;20217;-50
2023/07/22 09:14:12;;;;;;;3.90;2.53;;;;;;;;;;5042254;28;20237;-49
2023/07/22 09:16:38;;;;;;;4.00;2.80;;;;;;;;;;5045759;28;20538;-49
2023/07/22 09:19:05;;;;;;;3.65;3.08;;;;;;;;;;5051945;28;20191;-49
2023/07/22 09:21:31;;;;;;;3.70;2.83;;;;;;;;;;5041866;28;20555;-48
2023/07/22 09:23:57;;;;;;;4.22;2.67;;;;;;;;;;5060289;28;20218;-48
2023/07/22 09:26:23;;;;;;;8.13;2.92;;;;;;;;;;5056864;28;20186;-49
2023/07/22 09:28:50;;;;;;;2.58;2.38;;;;;;;;;;5049898;28;20419;-48
2023/07/22 09:31:16;;;;;;;3.35;2.50;;;;;;;;;;5044623;28;20627;-48
2023/07/22 09:33:42;;;;;;;3.15;2.65;;;;;;;;;;5053499;28;20245;-49
2023/07/22 09:36:10;;;;;;;3.92;2.58;;;;;;;;;;5051082;28;20187;-49
2023/07/22 09:38:36;;;;;;;3.20;2.50;;;;;;;;;;5046062;28;20547;-49
2023/07/22 09:41:02;;;;;;;3.25;2.50;;;;;;;;;;5054782;28;20178;-49
2023/07/22 09:43:30;;;;;;;3.47;2.10;;;;;;;;;;5055791;28;20190;-49
2023/07/22 09:45:56;;;;;;;2.50;2.30;;;;;;;;;;5063089;28;20195;-49
2023/07/22 09:48:22;;;;;;;4.85;2.50;;;;;;;;;;5055610;28;20210;-48
2023/07/22 09:50:58;;;;;;;2.75;2.47;;;;;;;;;;5049274;28;20584;-48
2023/07/22 09:53:24;;;;;;;2.47;2.28;;;;;;;;;;5048374;28;20190;-48
2023/07/22 09:55:53;;;;;;;2.67;2.47;;;;;;;;;;5046618;28;20246;-49
2023/07/22 09:58:19;;;;;;;3.00;2.60;;;;;;;;;;5045287;28;20180;-49
2023/07/22 10:00:51;;;;;;;3.13;2.60;;;;;;;;;;5049382;28;20201;-49
2023/07/22 10:03:19;;;;;;;10.25;3.65;;;;;;;;;;5067529;28;20191;-49
2023/07/22 10:05:46;;;;;;;5.68;2.92;;;;;;;;;;5051754;28;20176;-48
2023/07/22 10:08:12;;;;;;;5.93;3.42;;;;;;;;;;5041594;28;20445;-48
2023/07/22 10:10:39;;;;;;;3.80;2.50;;;;;;;;;;5045854;28;20190;-48
2023/07/22 10:13:05;;;;;;;9.52;3.20;;;;;;;;;;5053528;28;20232;-48
2023/07/22 10:15:35;;;;;;;4.65;2.80;;;;;;;;;;5045409;28;20212;-48
2023/07/22 10:18:05;;;;;;;5.45;2.80;;;;;;;;;;5044126;28;20174;-48
2023/07/22 10:20:34;;;;;;;3.67;2.85;;;;;;;;;;5044256;28;20539;-48
2023/07/22 10:23:01;;;;;;;4.03;2.63;;;;;;;;;;5052787;28;20203;-49
2023/07/22 10:25:27;;;;;;;4.55;2.55;;;;;;;;;;5061533;28;20205;-48
2023/07/22 10:27:53;;;;;;;2.85;2.50;;;;;;;;;;5064284;28;20289;-49
2023/07/22 10:30:19;;;;;;;3.15;2.22;;;;;;;;;;5077488;28;20167;-49
2023/07/22 10:32:47;;;;;;;3.30;2.70;;;;;;;;;;5077825;28;20166;-49
2023/07/22 10:35:17;;;;;;;2.97;2.38;;;;;;;;;;5077550;28;20198;-48
2023/07/22 10:37:45;;;;;;;2.78;2.30;;;;;;;;;;5077557;28;20159;-48
2023/07/22 10:40:20;;;;;;;3.88;2.38;;;;;;;;;;5077080;28;20167;-48
2023/07/22 10:42:55;;;;;;;4.53;2.67;;;;;;;;;;5076931;28;20185;-48
2023/07/22 10:45:28;;;;;;;2.85;2.53;;;;;;;;;;5076939;28;20181;-49
2023/07/22 10:48:01;;;;;;;2.63;2.40;;;;;;;;;;5076913;28;20250;-49
2023/07/22 10:50:38;;;;;;;2.63;2.42;;;;;;;;;;5077080;28;20216;-49
2023/07/22 10:53:04;;;;;;;2.65;2.00;;;;;;;;;;5077365;28;20407;-49
2023/07/22 10:55:30;;;;;;;3.72;2.67;;;;;;;;;;5077288;28;20565;-48
2023/07/22 10:58:03;;;;;;;3.88;2.42;;;;;;;;;;5077484;28;20174;-49
2023/07/22 11:00:30;;;;;;;2.95;2.10;;;;;;;;;;5076943;28;20169;-49
2023/07/22 11:03:12;;;;;;;4.45;2.50;;;;;;;;;;5077488;28;20163;-49
2023/07/22 11:05:53;;;;;;;2.75;2.33;;;;;;;;;;5077119;28;20212;-49
2023/07/22 11:08:38;;;;;;;3.20;2.08;;;;;;;;;;5077443;28;20177;-49
2023/07/22 11:11:04;;;;;;;3.53;2.40;;;;;;;;;;5077323;28;20194;-49
2023/07/22 11:13:30;;;;;;;2.33;2.08;;;;;;;;;;5077262;28;20224;-49
2023/07/22 11:15:59;;;;;;;5.30;2.03;;;;;;;;;;5077106;28;20522;-49
2023/07/22 11:18:38;;;;;;;3.25;2.13;;;;;;;;;;5077273;28;20181;-49
2023/07/22 11:21:07;;;;;;;3.80;2.45;;;;;;;;;;5077091;28;20204;-48
2023/07/22 11:23:34;;;;;;;3.95;2.30;;;;;;;;;;5041668;28;1015060;-48
2023/07/22 11:26:00;;;;;;;2.42;2.22;;;;;;;;;;5078119;28;20143;-48
2023/07/22 11:28:26;;;;;;;2.20;2.00;;;;;;;;;;5069419;28;20198;-49
2023/07/22 11:30:53;;;;;;;3.53;2.63;;;;;;;;;;5055695;28;20183;-48
2023/07/22 11:33:19;;;;;;;3.42;2.63;;;;;;;;;;5051988;28;20175;-48
2023/07/22 11:35:45;;;;;;;3.40;2.80;;;;;;;;;;5054736;28;20214;-48
2023/07/22 11:38:12;;;;;;;2.60;2.17;;;;;;;;;;5050483;28;20547;-48
2023/07/22 11:40:39;;;;;;;4.03;2.40;;;;;;;;;;5049088;28;20184;-48
2023/07/22 11:43:05;;;;;;;2.40;2.20;;;;;;;;;;5054532;28;20179;-49
2023/07/22 11:45:32;;;;;;;2.83;2.58;;;;;;;;;;5055508;28;20179;-49
2023/07/22 11:47:58;;;;;;;2.95;2.55;;;;;;;;;;5055029;28;20237;-48
2023/07/22 11:50:34;;;;;;;3.55;2.55;;;;;;;;;;5049833;28;20183;-48
2023/07/22 11:53:00;;;;;;;4.75;2.30;;;;;;;;;;5068762;28;20220;-48
2023/07/22 11:55:26;;;;;;;3.03;2.70;;;;;;;;;;5074368;28;20206;-49
2023/07/22 11:57:53;;;;;;;4.93;2.80;;;;;;;;;;5074050;28;20178;-48
2023/07/22 12:00:19;;;;;;;4.63;2.85;;;;;;;;;;5054915;28;20171;-48
2023/07/22 12:02:45;;;;;;;4.25;2.60;;;;;;;;;;5049960;28;20198;-48
2023/07/22 12:05:11;;;;;;;3.50;2.38;;;;;;;;;;5054739;28;20183;-48
2023/07/22 12:07:38;;;;;;;4.45;3.33;;;;;;;;;;5054202;28;20186;-48
2023/07/22 12:10:07;;;;;;;4.88;2.50;;;;;;;;;;5054014;28;20191;-48
2023/07/22 12:12:34;;;;;;;5.65;3.08;;;;;;;;;;5053442;28;20462;-48
2023/07/22 12:15:19;;;;;;;3.10;2.60;;;;;;;;;;5055197;28;20570;-49
2023/07/22 12:17:48;;;;;;;6.90;2.53;;;;;;;;;;5054768;28;20548;-48
2023/07/22 12:20:14;;;;;;;7.43;3.00;;;;;;;;;;5053984;28;20583;-48
2023/07/22 12:22:41;;;;;;;4.40;2.97;;;;;;;;;;5050206;28;20237;-49
2023/07/22 12:25:07;;;;;;;4.25;2.88;;;;;;;;;;5053412;28;20194;-48
2023/07/22 12:27:33;;;;;;;3.55;2.97;;;;;;;;;;5047708;28;20489;-48
2023/07/22 12:29:59;;;;;;;4.95;2.75;;;;;;;;;;5041085;28;20305;-48
2023/07/22 12:32:25;;;;;;;4.35;2.85;;;;;;;;;;5046219;28;20244;-48
2023/07/22 12:34:51;;;;;;;4.03;3.08;;;;;;;;;;5047960;28;20214;-48
2023/07/22 12:37:17;;;;;;;7.97;3.30;;;;;;;;;;5058951;28;20179;-48
2023/07/22 12:39:43;;;;;;;3.97;2.60;;;;;;;;;;5053351;28;20480;-49
2023/07/22 12:42:09;;;;;;;6.70;3.50;;;;;;;;;;5053319;28;20206;-48
2023/07/22 12:44:35;;;;;;;4.20;2.60;;;;;;;;;;5053210;28;20473;-48
2023/07/22 12:47:01;;;;;;;5.82;3.35;;;;;;;;;;5054357;28;20205;-48
2023/07/22 12:49:27;;;;;;;4.13;3.00;;;;;;;;;;5052896;28;20206;-48
2023/07/22 12:51:53;;;;;;;3.80;3.40;;;;;;;;;;5051999;28;20269;-48
2023/07/22 12:54:18;;;;;;;7.32;3.47;;;;;;;;;;5040043;28;20286;-48
2023/07/22 12:56:44;;;;;;;4.40;3.13;;;;;;;;;;5038718;28;20199;-48
2023/07/22 12:59:10;;;;;;;4.03;3.00;;;;;;;;;;5044024;28;20217;-49
2023/07/22 13:01:39;;;;;;;3.63;3.03;;;;;;;;;;5052475;28;20210;-48
2023/07/22 13:04:05;;;;;;;5.07;3.10;;;;;;;;;;5048192;28;20485;-49
2023/07/22 13:06:31;;;;;;;4.45;2.97;;;;;;;;;;5053946;28;20259;-49
2023/07/22 13:08:57;;;;;;;9.40;3.25;;;;;;;;;;5053795;28;20185;-48
2023/07/22 13:11:23;;;;;;;6.88;3.03;;;;;;;;;;5051359;28;20182;-49
2023/07/22 13:13:49;;;;;;;3.33;2.92;;;;;;;;;;5052854;28;20254;-48
2023/07/22 13:16:15;;;;;;;3.67;2.97;;;;;;;;;;5054465;28;20573;-48
2023/07/22 13:18:41;;;;;;;6.57;3.20;;;;;;;;;;5053298;28;20186;-48
2023/07/22 13:21:07;;;;;;;3.63;3.20;;;;;;;;;;5053324;28;20240;-48
2023/07/22 13:23:33;;;;;;;4.85;2.88;;;;;;;;;;5054610;28;20194;-48
2023/07/22 13:25:59;;;;;;;3.00;2.70;;;;;;;;;;5069144;28;20187;-49
2023/07/22 13:28:25;;;;;;;4.65;3.38;;;;;;;;;;5036529;28;20187;-48
2023/07/22 13:30:51;;;;;;;4.18;3.15;;;;;;;;;;5052741;28;20183;-48
2023/07/22 13:33:18;;;;;;;5.90;2.97;;;;;;;;;;5046813;28;20175;-48
2023/07/22 13:35:44;;;;;;;7.90;3.42;;;;;;;;;;5053840;28;20586;-48
2023/07/22 13:38:10;;;;;;;3.33;2.88;;;;;;;;;;5067824;28;20191;-48
2023/07/22 13:40:36;;;;;;;6.85;2.70;;;;;;;;;;5050167;28;20183;-48
2023/07/22 13:43:02;;;;;;;6.43;3.30;;;;;;;;;;5052385;28;20179;-48
2023/07/22 13:45:28;;;;;;;4.22;3.00;;;;;;;;;;5049643;28;20195;-48
2023/07/22 13:47:54;;;;;;;3.83;3.10;;;;;;;;;;5052450;28;20225;-48
2023/07/22 13:50:20;;;;;;;3.22;2.70;;;;;;;;;;5043273;28;20179;-48
2023/07/22 13:52:46;;;;;;;4.65;2.88;;;;;;;;;;5058324;28;20190;-48
2023/07/22 13:55:11;;;;;;;3.80;2.63;;;;;;;;;;5049578;28;20215;-48
2023/07/22 13:57:37;;;;;;;4.57;3.10;;;;;;;;;;5053534;28;20179;-48
2023/07/22 14:00:08;;;;;;;4.43;2.85;;;;;;;;;;5045774;28;20175;-49
2023/07/22 14:02:34;;;;;;;3.72;3.03;;;;;;;;;;5045290;28;20204;-48
2023/07/22 14:05:00;;;;;;;4.25;2.85;;;;;;;;;;5052609;28;20194;-49
2023/07/22 14:07:26;;;;;;;5.00;2.88;;;;;;;;;;5053602;28;20266;-49
2023/07/22 14:09:53;;;;;;;4.75;2.70;;;;;;;;;;5044344;28;20203;-49
2023/07/22 14:12:19;;;;;;;3.95;3.00;;;;;;;;;;5047178;28;20183;-48
2023/07/22 14:14:46;;;;;;;4.13;3.22;;;;;;;;;;5048286;28;20294;-48
2023/07/22 14:17:12;;;;;;;3.70;2.80;;;;;;;;;;5051660;28;20229;-48
2023/07/22 14:19:38;;;;;;;5.15;3.13;;;;;;;;;;5047407;28;20220;-48
2023/07/22 14:22:04;;;;;;;6.13;2.80;;;;;;;;;;5053980;28;20453;-48
2023/07/22 14:24:30;;;;;;;3.28;2.60;;;;;;;;;;5048414;28;20241;-48
2023/07/22 14:26:56;;;;;;;4.40;2.78;;;;;;;;;;5055527;28;20179;-48
2023/07/22 14:29:22;;;;;;;6.28;3.03;;;;;;;;;;5050925;28;20201;-49
2023/07/22 14:31:48;;;;;;;5.28;3.20;;;;;;;;;;5056326;28;20217;-48
2023/07/22 14:34:14;;;;;;;4.05;3.22;;;;;;;;;;5056011;28;20508;-48
2023/07/22 14:36:40;;;;;;;7.30;2.92;;;;;;;;;;5055299;28;20209;-48
2023/07/22 14:39:06;;;;;;;4.05;2.90;;;;;;;;;;5056142;28;20229;-48
2023/07/22 14:41:32;;;;;;;6.07;3.40;;;;;;;;;;5056977;28;20755;-48